sensor_id;sensor_type;location;lat;lon;timestamp;P1;durP1;ratioP1;P2;durP2;ratioP2
45043;SDS011;30784;48.490;9.688;2023-05-16T00:00:56;12.88;;;7.90;;
45043;SDS011;30784;48.490;9.688;2023-05-16T00:03:22;16.58;;;9.57;;
45043;SDS011;30784;48.490;9.688;2023-05-16T00:05:48;12.00;;;6.13;;
45043;SDS011;30784;48.490;9.688;2023-05-16T00:08:14;9.35;;;5.07;;
45043;SDS011;30784;48.490;9.688;2023-05-16T00:10:40;9.38;;;5.05;;
45043;SDS011;30784;48.490;9.688;2023-05-16T00:13:05;8.88;;;4.50;;
45043;SDS011;30784;48.490;9.688;2023-05-16T00:15:31;8.05;;;4.00;;
45043;SDS011;30784;48.490;9.688;2023-05-16T00:17:57;8.15;;;4.07;;
45043;SDS011;30784;48.490;9.688;2023-05-16T00:20:26;7.85;;;4.10;;
45043;SDS011;30784;48.490;9.688;2023-05-16T00:22:52;7.80;;;3.85;;
45043;SDS011;30784;48.490;9.688;2023-05-16T00:25:18;7.78;;;3.85;;
45043;SDS011;30784;48.490;9.688;2023-05-16T00:27:43;8.57;;;4.20;;
45043;SDS011;30784;48.490;9.688;2023-05-16T00:30:09;7.85;;;4.18;;
45043;SDS011;30784;48.490;9.688;2023-05-16T00:32:35;8.07;;;4.38;;
45043;SDS011;30784;48.490;9.688;2023-05-16T00:35:01;7.72;;;3.92;;
45043;SDS011;30784;48.490;9.688;2023-05-16T00:37:27;8.95;;;4.07;;
45043;SDS011;30784;48.490;9.688;2023-05-16T00:39:52;8.68;;;4.63;;
45043;SDS011;30784;48.490;9.688;2023-05-16T00:42:18;8.40;;;4.13;;
45043;SDS011;30784;48.490;9.688;2023-05-16T00:44:48;8.38;;;4.43;;
45043;SDS011;30784;48.490;9.688;2023-05-16T00:47:13;10.10;;;5.05;;
45043;SDS011;30784;48.490;9.688;2023-05-16T00:49:39;8.82;;;4.38;;
45043;SDS011;30784;48.490;9.688;2023-05-16T00:52:04;8.65;;;5.07;;
45043;SDS011;30784;48.490;9.688;2023-05-16T00:54:30;10.23;;;5.18;;
45043;SDS011;30784;48.490;9.688;2023-05-16T00:56:56;10.52;;;5.68;;
45043;SDS011;30784;48.490;9.688;2023-05-16T00:59:24;10.57;;;5.80;;
45043;SDS011;30784;48.490;9.688;2023-05-16T01:01:50;9.88;;;5.95;;
45043;SDS011;30784;48.490;9.688;2023-05-16T01:04:16;9.98;;;5.88;;
45043;SDS011;30784;48.490;9.688;2023-05-16T01:06:44;10.57;;;5.90;;
45043;SDS011;30784;48.490;9.688;2023-05-16T01:09:10;10.20;;;6.50;;
45043;SDS011;30784;48.490;9.688;2023-05-16T01:17:19;10.88;;;6.35;;
45043;SDS011;30784;48.490;9.688;2023-05-16T01:20:08;9.82;;;5.75;;
45043;SDS011;30784;48.490;9.688;2023-05-16T01:28:09;11.13;;;6.65;;
45043;SDS011;30784;48.490;9.688;2023-05-16T01:30:37;11.02;;;6.75;;
45043;SDS011;30784;48.490;9.688;2023-05-16T01:33:04;11.65;;;7.07;;
45043;SDS011;30784;48.490;9.688;2023-05-16T01:35:30;12.27;;;7.70;;
45043;SDS011;30784;48.490;9.688;2023-05-16T01:40:47;12.20;;;7.43;;
45043;SDS011;30784;48.490;9.688;2023-05-16T01:43:36;13.65;;;7.97;;
45043;SDS011;30784;48.490;9.688;2023-05-16T01:46:11;11.90;;;7.47;;
45043;SDS011;30784;48.490;9.688;2023-05-16T01:48:52;13.30;;;7.97;;
45043;SDS011;30784;48.490;9.688;2023-05-16T01:51:23;13.25;;;8.60;;
45043;SDS011;30784;48.490;9.688;2023-05-16T01:53:54;13.43;;;7.85;;
45043;SDS011;30784;48.490;9.688;2023-05-16T01:56:28;13.25;;;8.23;;
45043;SDS011;30784;48.490;9.688;2023-05-16T01:58:55;12.98;;;8.38;;
45043;SDS011;30784;48.490;9.688;2023-05-16T02:01:23;15.95;;;8.85;;
45043;SDS011;30784;48.490;9.688;2023-05-16T02:03:48;12.77;;;8.27;;
45043;SDS011;30784;48.490;9.688;2023-05-16T02:06:15;12.82;;;8.05;;
45043;SDS011;30784;48.490;9.688;2023-05-16T02:08:40;13.55;;;8.70;;
45043;SDS011;30784;48.490;9.688;2023-05-16T02:11:06;13.77;;;9.02;;
45043;SDS011;30784;48.490;9.688;2023-05-16T02:13:31;14.48;;;9.40;;
45043;SDS011;30784;48.490;9.688;2023-05-16T02:15:57;13.65;;;8.68;;
45043;SDS011;30784;48.490;9.688;2023-05-16T02:18:22;13.00;;;8.50;;
45043;SDS011;30784;48.490;9.688;2023-05-16T02:20:48;13.77;;;9.07;;
45043;SDS011;30784;48.490;9.688;2023-05-16T02:23:14;14.13;;;8.48;;
45043;SDS011;30784;48.490;9.688;2023-05-16T02:25:40;15.32;;;9.60;;
45043;SDS011;30784;48.490;9.688;2023-05-16T02:28:05;14.50;;;9.43;;
45043;SDS011;30784;48.490;9.688;2023-05-16T02:30:31;14.45;;;9.40;;
45043;SDS011;30784;48.490;9.688;2023-05-16T02:32:57;13.95;;;9.27;;
45043;SDS011;30784;48.490;9.688;2023-05-16T02:35:22;14.50;;;9.65;;
45043;SDS011;30784;48.490;9.688;2023-05-16T02:37:48;15.93;;;9.90;;
45043;SDS011;30784;48.490;9.688;2023-05-16T02:40:13;14.68;;;9.77;;
45043;SDS011;30784;48.490;9.688;2023-05-16T02:42:39;16.80;;;9.75;;
45043;SDS011;30784;48.490;9.688;2023-05-16T02:45:05;15.55;;;9.52;;
45043;SDS011;30784;48.490;9.688;2023-05-16T02:47:30;14.63;;;9.50;;
45043;SDS011;30784;48.490;9.688;2023-05-16T02:49:56;14.27;;;9.38;;
45043;SDS011;30784;48.490;9.688;2023-05-16T02:52:22;15.73;;;10.32;;
45043;SDS011;30784;48.490;9.688;2023-05-16T02:54:47;15.85;;;10.00;;
45043;SDS011;30784;48.490;9.688;2023-05-16T02:57:13;16.02;;;10.65;;
45043;SDS011;30784;48.490;9.688;2023-05-16T02:59:38;17.08;;;11.13;;
45043;SDS011;30784;48.490;9.688;2023-05-16T03:02:04;17.20;;;11.00;;
45043;SDS011;30784;48.490;9.688;2023-05-16T03:04:30;17.33;;;11.80;;
45043;SDS011;30784;48.490;9.688;2023-05-16T03:06:55;20.00;;;12.40;;
45043;SDS011;30784;48.490;9.688;2023-05-16T03:09:21;17.95;;;12.57;;
45043;SDS011;30784;48.490;9.688;2023-05-16T03:11:47;18.90;;;12.90;;
45043;SDS011;30784;48.490;9.688;2023-05-16T03:14:12;18.85;;;12.27;;
45043;SDS011;30784;48.490;9.688;2023-05-16T03:16:38;18.05;;;12.15;;
45043;SDS011;30784;48.490;9.688;2023-05-16T03:19:05;18.58;;;12.68;;
45043;SDS011;30784;48.490;9.688;2023-05-16T03:21:31;17.08;;;11.80;;
45043;SDS011;30784;48.490;9.688;2023-05-16T03:23:56;19.70;;;12.63;;
45043;SDS011;30784;48.490;9.688;2023-05-16T03:26:23;22.05;;;13.38;;
45043;SDS011;30784;48.490;9.688;2023-05-16T03:28:49;19.38;;;13.18;;
45043;SDS011;30784;48.490;9.688;2023-05-16T03:31:15;20.25;;;14.20;;
45043;SDS011;30784;48.490;9.688;2023-05-16T03:33:41;22.23;;;14.38;;
45043;SDS011;30784;48.490;9.688;2023-05-16T03:36:07;19.58;;;14.20;;
45043;SDS011;30784;48.490;9.688;2023-05-16T03:38:33;22.52;;;14.63;;
45043;SDS011;30784;48.490;9.688;2023-05-16T03:40:59;21.92;;;15.07;;
45043;SDS011;30784;48.490;9.688;2023-05-16T03:43:25;22.27;;;15.93;;
45043;SDS011;30784;48.490;9.688;2023-05-16T03:45:51;25.02;;;16.92;;
45043;SDS011;30784;48.490;9.688;2023-05-16T03:48:16;21.88;;;14.65;;
45043;SDS011;30784;48.490;9.688;2023-05-16T03:50:42;22.83;;;15.10;;
45043;SDS011;30784;48.490;9.688;2023-05-16T03:53:08;23.65;;;16.02;;
45043;SDS011;30784;48.490;9.688;2023-05-16T03:55:33;22.98;;;15.60;;
45043;SDS011;30784;48.490;9.688;2023-05-16T03:57:59;22.52;;;16.08;;
45043;SDS011;30784;48.490;9.688;2023-05-16T04:00:25;22.58;;;16.30;;
45043;SDS011;30784;48.490;9.688;2023-05-16T04:02:50;25.33;;;16.60;;
45043;SDS011;30784;48.490;9.688;2023-05-16T04:05:16;23.20;;;15.77;;
45043;SDS011;30784;48.490;9.688;2023-05-16T04:07:42;23.55;;;15.90;;
45043;SDS011;30784;48.490;9.688;2023-05-16T04:10:07;23.90;;;15.82;;
45043;SDS011;30784;48.490;9.688;2023-05-16T04:12:34;23.95;;;16.30;;
45043;SDS011;30784;48.490;9.688;2023-05-16T04:15:00;23.08;;;15.10;;
45043;SDS011;30784;48.490;9.688;2023-05-16T04:17:26;23.15;;;15.57;;
45043;SDS011;30784;48.490;9.688;2023-05-16T04:19:52;23.60;;;15.00;;
45043;SDS011;30784;48.490;9.688;2023-05-16T04:22:19;22.00;;;15.18;;
45043;SDS011;30784;48.490;9.688;2023-05-16T04:24:45;29.95;;;19.95;;
45043;SDS011;30784;48.490;9.688;2023-05-16T04:27:11;22.83;;;15.95;;
45043;SDS011;30784;48.490;9.688;2023-05-16T04:29:37;23.08;;;15.23;;
45043;SDS011;30784;48.490;9.688;2023-05-16T04:32:02;22.70;;;15.05;;
45043;SDS011;30784;48.490;9.688;2023-05-16T04:34:28;21.50;;;14.93;;
45043;SDS011;30784;48.490;9.688;2023-05-16T04:36:54;21.70;;;14.50;;
45043;SDS011;30784;48.490;9.688;2023-05-16T04:39:20;21.15;;;14.45;;
45043;SDS011;30784;48.490;9.688;2023-05-16T04:41:46;20.58;;;14.38;;
45043;SDS011;30784;48.490;9.688;2023-05-16T04:44:11;21.73;;;14.32;;
45043;SDS011;30784;48.490;9.688;2023-05-16T04:46:37;20.17;;;14.20;;
45043;SDS011;30784;48.490;9.688;2023-05-16T04:49:03;23.05;;;13.73;;
45043;SDS011;30784;48.490;9.688;2023-05-16T04:51:28;22.35;;;14.30;;
45043;SDS011;30784;48.490;9.688;2023-05-16T04:53:54;20.35;;;14.20;;
45043;SDS011;30784;48.490;9.688;2023-05-16T04:56:20;19.75;;;13.95;;
45043;SDS011;30784;48.490;9.688;2023-05-16T04:58:46;20.73;;;14.63;;
45043;SDS011;30784;48.490;9.688;2023-05-16T05:01:12;21.70;;;13.88;;
45043;SDS011;30784;48.490;9.688;2023-05-16T05:03:37;21.88;;;14.63;;
45043;SDS011;30784;48.490;9.688;2023-05-16T05:06:03;20.20;;;13.07;;
45043;SDS011;30784;48.490;9.688;2023-05-16T05:08:28;20.30;;;14.55;;
45043;SDS011;30784;48.490;9.688;2023-05-16T05:10:55;20.45;;;14.07;;
45043;SDS011;30784;48.490;9.688;2023-05-16T05:13:20;20.73;;;14.60;;
45043;SDS011;30784;48.490;9.688;2023-05-16T05:15:46;20.35;;;14.52;;
45043;SDS011;30784;48.490;9.688;2023-05-16T05:18:11;22.60;;;13.88;;
45043;SDS011;30784;48.490;9.688;2023-05-16T05:20:37;20.83;;;13.75;;
45043;SDS011;30784;48.490;9.688;2023-05-16T05:23:02;19.98;;;14.32;;
45043;SDS011;30784;48.490;9.688;2023-05-16T05:25:28;22.67;;;15.10;;
45043;SDS011;30784;48.490;9.688;2023-05-16T05:27:54;21.13;;;14.50;;
45043;SDS011;30784;48.490;9.688;2023-05-16T05:30:19;20.33;;;14.48;;
45043;SDS011;30784;48.490;9.688;2023-05-16T05:32:45;21.75;;;14.57;;
45043;SDS011;30784;48.490;9.688;2023-05-16T05:35:10;21.27;;;14.18;;
45043;SDS011;30784;48.490;9.688;2023-05-16T05:37:36;22.20;;;14.82;;
45043;SDS011;30784;48.490;9.688;2023-05-16T05:40:02;22.83;;;15.50;;
45043;SDS011;30784;48.490;9.688;2023-05-16T05:42:28;21.73;;;15.10;;
45043;SDS011;30784;48.490;9.688;2023-05-16T05:44:53;22.05;;;15.32;;
45043;SDS011;30784;48.490;9.688;2023-05-16T05:47:19;20.42;;;14.63;;
45043;SDS011;30784;48.490;9.688;2023-05-16T05:49:45;21.55;;;14.90;;
45043;SDS011;30784;48.490;9.688;2023-05-16T05:52:11;21.17;;;14.40;;
45043;SDS011;30784;48.490;9.688;2023-05-16T05:54:37;21.63;;;14.40;;
45043;SDS011;30784;48.490;9.688;2023-05-16T05:57:02;22.23;;;15.68;;
45043;SDS011;30784;48.490;9.688;2023-05-16T05:59:28;20.40;;;14.18;;
45043;SDS011;30784;48.490;9.688;2023-05-16T06:01:54;21.08;;;14.85;;
45043;SDS011;30784;48.490;9.688;2023-05-16T06:04:20;20.88;;;14.13;;
45043;SDS011;30784;48.490;9.688;2023-05-16T06:06:46;21.90;;;14.25;;
45043;SDS011;30784;48.490;9.688;2023-05-16T06:09:12;21.17;;;15.45;;
45043;SDS011;30784;48.490;9.688;2023-05-16T06:11:39;20.88;;;15.23;;
45043;SDS011;30784;48.490;9.688;2023-05-16T06:14:05;23.35;;;16.45;;
45043;SDS011;30784;48.490;9.688;2023-05-16T06:16:31;22.20;;;15.07;;
45043;SDS011;30784;48.490;9.688;2023-05-16T06:18:57;22.05;;;15.55;;
45043;SDS011;30784;48.490;9.688;2023-05-16T06:21:22;21.33;;;15.30;;
45043;SDS011;30784;48.490;9.688;2023-05-16T06:23:48;20.85;;;14.93;;
45043;SDS011;30784;48.490;9.688;2023-05-16T06:26:14;22.70;;;15.45;;
45043;SDS011;30784;48.490;9.688;2023-05-16T06:28:39;22.40;;;15.15;;
45043;SDS011;30784;48.490;9.688;2023-05-16T06:31:05;21.42;;;15.20;;
45043;SDS011;30784;48.490;9.688;2023-05-16T06:33:30;21.38;;;15.27;;
45043;SDS011;30784;48.490;9.688;2023-05-16T06:35:56;22.45;;;16.85;;
45043;SDS011;30784;48.490;9.688;2023-05-16T06:38:22;23.55;;;16.80;;
45043;SDS011;30784;48.490;9.688;2023-05-16T06:40:47;21.88;;;15.07;;
45043;SDS011;30784;48.490;9.688;2023-05-16T06:43:13;20.45;;;13.95;;
45043;SDS011;30784;48.490;9.688;2023-05-16T06:45:38;20.40;;;14.93;;
45043;SDS011;30784;48.490;9.688;2023-05-16T06:48:05;24.20;;;16.48;;
45043;SDS011;30784;48.490;9.688;2023-05-16T06:50:31;22.40;;;15.85;;
45043;SDS011;30784;48.490;9.688;2023-05-16T06:52:59;21.42;;;15.57;;
45043;SDS011;30784;48.490;9.688;2023-05-16T06:55:25;20.88;;;14.77;;
45043;SDS011;30784;48.490;9.688;2023-05-16T06:57:50;20.77;;;14.68;;
45043;SDS011;30784;48.490;9.688;2023-05-16T07:00:16;19.33;;;14.05;;
45043;SDS011;30784;48.490;9.688;2023-05-16T07:02:42;19.38;;;13.50;;
45043;SDS011;30784;48.490;9.688;2023-05-16T07:05:08;18.60;;;13.75;;
45043;SDS011;30784;48.490;9.688;2023-05-16T07:07:34;18.13;;;12.98;;
45043;SDS011;30784;48.490;9.688;2023-05-16T07:09:59;20.27;;;13.82;;
45043;SDS011;30784;48.490;9.688;2023-05-16T07:12:25;18.75;;;12.88;;
45043;SDS011;30784;48.490;9.688;2023-05-16T07:14:51;20.05;;;14.50;;
45043;SDS011;30784;48.490;9.688;2023-05-16T07:17:16;18.48;;;13.07;;
45043;SDS011;30784;48.490;9.688;2023-05-16T07:19:42;18.80;;;13.18;;
45043;SDS011;30784;48.490;9.688;2023-05-16T07:22:07;20.77;;;14.82;;
45043;SDS011;30784;48.490;9.688;2023-05-16T07:24:33;19.58;;;14.05;;
45043;SDS011;30784;48.490;9.688;2023-05-16T07:27:00;19.35;;;13.27;;
45043;SDS011;30784;48.490;9.688;2023-05-16T07:29:25;20.85;;;14.73;;
45043;SDS011;30784;48.490;9.688;2023-05-16T07:31:51;19.85;;;13.68;;
45043;SDS011;30784;48.490;9.688;2023-05-16T07:34:17;19.48;;;13.82;;
45043;SDS011;30784;48.490;9.688;2023-05-16T07:36:42;18.85;;;13.40;;
45043;SDS011;30784;48.490;9.688;2023-05-16T07:39:08;20.55;;;13.73;;
45043;SDS011;30784;48.490;9.688;2023-05-16T07:41:33;20.13;;;13.77;;
45043;SDS011;30784;48.490;9.688;2023-05-16T07:43:59;19.77;;;14.40;;
45043;SDS011;30784;48.490;9.688;2023-05-16T07:46:24;19.73;;;13.98;;
45043;SDS011;30784;48.490;9.688;2023-05-16T07:48:50;20.13;;;13.82;;
45043;SDS011;30784;48.490;9.688;2023-05-16T07:51:16;18.95;;;13.50;;
45043;SDS011;30784;48.490;9.688;2023-05-16T07:53:41;18.75;;;14.10;;
45043;SDS011;30784;48.490;9.688;2023-05-16T07:56:07;19.40;;;12.95;;
45043;SDS011;30784;48.490;9.688;2023-05-16T07:58:33;19.90;;;14.05;;
45043;SDS011;30784;48.490;9.688;2023-05-16T08:00:58;21.02;;;14.30;;
45043;SDS011;30784;48.490;9.688;2023-05-16T08:03:24;20.75;;;14.15;;
45043;SDS011;30784;48.490;9.688;2023-05-16T08:05:50;22.05;;;14.10;;
45043;SDS011;30784;48.490;9.688;2023-05-16T08:08:15;19.58;;;13.55;;
45043;SDS011;30784;48.490;9.688;2023-05-16T08:10:41;20.08;;;13.98;;
45043;SDS011;30784;48.490;9.688;2023-05-16T08:13:07;22.45;;;14.65;;
45043;SDS011;30784;48.490;9.688;2023-05-16T08:15:33;19.55;;;13.18;;
45043;SDS011;30784;48.490;9.688;2023-05-16T08:17:59;17.58;;;12.48;;
45043;SDS011;30784;48.490;9.688;2023-05-16T08:20:25;21.77;;;15.48;;
45043;SDS011;30784;48.490;9.688;2023-05-16T08:22:51;21.25;;;13.43;;
45043;SDS011;30784;48.490;9.688;2023-05-16T08:25:16;19.10;;;13.95;;
45043;SDS011;30784;48.490;9.688;2023-05-16T08:27:43;18.95;;;13.70;;
45043;SDS011;30784;48.490;9.688;2023-05-16T08:30:10;18.85;;;13.35;;
45043;SDS011;30784;48.490;9.688;2023-05-16T08:32:36;19.15;;;13.27;;
45043;SDS011;30784;48.490;9.688;2023-05-16T08:35:02;19.90;;;13.85;;
45043;SDS011;30784;48.490;9.688;2023-05-16T08:37:28;18.42;;;12.82;;
45043;SDS011;30784;48.490;9.688;2023-05-16T08:39:53;18.65;;;13.07;;
45043;SDS011;30784;48.490;9.688;2023-05-16T08:42:19;20.58;;;13.65;;
45043;SDS011;30784;48.490;9.688;2023-05-16T08:44:45;20.35;;;13.65;;
45043;SDS011;30784;48.490;9.688;2023-05-16T08:47:11;20.27;;;13.75;;
45043;SDS011;30784;48.490;9.688;2023-05-16T08:49:41;21.27;;;14.45;;
45043;SDS011;30784;48.490;9.688;2023-05-16T08:52:10;19.15;;;13.63;;
45043;SDS011;30784;48.490;9.688;2023-05-16T08:54:37;20.50;;;13.77;;
45043;SDS011;30784;48.490;9.688;2023-05-16T08:57:04;21.98;;;14.23;;
45043;SDS011;30784;48.490;9.688;2023-05-16T08:59:31;18.98;;;12.95;;
45043;SDS011;30784;48.490;9.688;2023-05-16T09:01:56;18.60;;;13.02;;
45043;SDS011;30784;48.490;9.688;2023-05-16T09:04:22;17.85;;;12.52;;
45043;SDS011;30784;48.490;9.688;2023-05-16T09:06:49;19.10;;;12.90;;
45043;SDS011;30784;48.490;9.688;2023-05-16T09:09:15;19.40;;;13.32;;
45043;SDS011;30784;48.490;9.688;2023-05-16T09:11:41;18.52;;;12.20;;
45043;SDS011;30784;48.490;9.688;2023-05-16T09:14:06;17.63;;;12.45;;
45043;SDS011;30784;48.490;9.688;2023-05-16T09:16:32;17.85;;;11.82;;
45043;SDS011;30784;48.490;9.688;2023-05-16T09:18:58;18.35;;;12.48;;
45043;SDS011;30784;48.490;9.688;2023-05-16T09:21:26;19.55;;;12.40;;
45043;SDS011;30784;48.490;9.688;2023-05-16T09:23:52;18.67;;;12.23;;
45043;SDS011;30784;48.490;9.688;2023-05-16T09:26:18;18.42;;;12.82;;
45043;SDS011;30784;48.490;9.688;2023-05-16T09:28:46;19.10;;;12.20;;
45043;SDS011;30784;48.490;9.688;2023-05-16T09:33:47;16.98;;;11.95;;
45043;SDS011;30784;48.490;9.688;2023-05-16T09:36:14;16.52;;;11.30;;
45043;SDS011;30784;48.490;9.688;2023-05-16T09:38:40;18.23;;;12.13;;
45043;SDS011;30784;48.490;9.688;2023-05-16T09:41:07;25.08;;;18.13;;
45043;SDS011;30784;48.490;9.688;2023-05-16T09:43:36;22.52;;;15.68;;
45043;SDS011;30784;48.490;9.688;2023-05-16T09:46:03;18.05;;;12.80;;
45043;SDS011;30784;48.490;9.688;2023-05-16T09:48:29;18.08;;;12.35;;
45043;SDS011;30784;48.490;9.688;2023-05-16T09:50:56;18.02;;;11.77;;
45043;SDS011;30784;48.490;9.688;2023-05-16T09:56:00;16.60;;;11.10;;
45043;SDS011;30784;48.490;9.688;2023-05-16T09:58:37;16.23;;;11.23;;
45043;SDS011;30784;48.490;9.688;2023-05-16T10:01:04;16.20;;;11.77;;
45043;SDS011;30784;48.490;9.688;2023-05-16T10:03:32;16.10;;;11.00;;
45043;SDS011;30784;48.490;9.688;2023-05-16T10:05:59;15.02;;;9.75;;
45043;SDS011;30784;48.490;9.688;2023-05-16T10:08:25;17.05;;;10.30;;
45043;SDS011;30784;48.490;9.688;2023-05-16T10:10:54;16.67;;;10.73;;
45043;SDS011;30784;48.490;9.688;2023-05-16T10:13:21;15.90;;;9.67;;
45043;SDS011;30784;48.490;9.688;2023-05-16T10:15:55;14.65;;;9.43;;
45043;SDS011;30784;48.490;9.688;2023-05-16T10:18:22;15.35;;;9.93;;
45043;SDS011;30784;48.490;9.688;2023-05-16T10:20:54;13.90;;;8.43;;
45043;SDS011;30784;48.490;9.688;2023-05-16T10:23:21;16.08;;;9.40;;
45043;SDS011;30784;48.490;9.688;2023-05-16T10:25:49;13.32;;;8.98;;
45043;SDS011;30784;48.490;9.688;2023-05-16T10:28:16;14.65;;;9.43;;
45043;SDS011;30784;48.490;9.688;2023-05-16T10:30:46;12.52;;;9.13;;
45043;SDS011;30784;48.490;9.688;2023-05-16T10:33:12;13.95;;;9.30;;
45043;SDS011;30784;48.490;9.688;2023-05-16T10:35:40;13.40;;;8.85;;
45043;SDS011;30784;48.490;9.688;2023-05-16T10:38:06;14.32;;;8.60;;
45043;SDS011;30784;48.490;9.688;2023-05-16T10:40:37;14.52;;;8.88;;
45043;SDS011;30784;48.490;9.688;2023-05-16T10:43:04;13.30;;;8.90;;
45043;SDS011;30784;48.490;9.688;2023-05-16T10:45:32;14.13;;;9.02;;
45043;SDS011;30784;48.490;9.688;2023-05-16T10:47:59;13.60;;;9.25;;
45043;SDS011;30784;48.490;9.688;2023-05-16T10:50:36;14.18;;;8.90;;
45043;SDS011;30784;48.490;9.688;2023-05-16T10:53:15;14.90;;;9.00;;
45043;SDS011;30784;48.490;9.688;2023-05-16T11:01:21;14.32;;;9.32;;
45043;SDS011;30784;48.490;9.688;2023-05-16T11:06:23;14.35;;;8.90;;
45043;SDS011;30784;48.490;9.688;2023-05-16T11:14:05;13.68;;;8.65;;
45043;SDS011;30784;48.490;9.688;2023-05-16T11:16:30;13.32;;;8.25;;
45043;SDS011;30784;48.490;9.688;2023-05-16T11:19:05;11.82;;;7.90;;
45043;SDS011;30784;48.490;9.688;2023-05-16T11:22:03;12.10;;;7.82;;
45043;SDS011;30784;48.490;9.688;2023-05-16T11:24:30;11.15;;;7.55;;
45043;SDS011;30784;48.490;9.688;2023-05-16T11:26:57;12.23;;;8.30;;
45043;SDS011;30784;48.490;9.688;2023-05-16T11:29:25;12.18;;;8.38;;
45043;SDS011;30784;48.490;9.688;2023-05-16T11:31:53;11.70;;;7.85;;
45043;SDS011;30784;48.490;9.688;2023-05-16T11:34:18;14.23;;;7.80;;
45043;SDS011;30784;48.490;9.688;2023-05-16T11:36:44;11.70;;;7.45;;
45043;SDS011;30784;48.490;9.688;2023-05-16T11:39:10;13.65;;;7.80;;
45043;SDS011;30784;48.490;9.688;2023-05-16T11:41:36;12.20;;;7.47;;
45043;SDS011;30784;48.490;9.688;2023-05-16T11:44:02;11.07;;;7.22;;
45043;SDS011;30784;48.490;9.688;2023-05-16T11:46:30;13.68;;;7.30;;
45043;SDS011;30784;48.490;9.688;2023-05-16T11:48:57;11.02;;;7.00;;
45043;SDS011;30784;48.490;9.688;2023-05-16T11:51:23;11.85;;;7.50;;
45043;SDS011;30784;48.490;9.688;2023-05-16T11:53:48;12.10;;;7.50;;
45043;SDS011;30784;48.490;9.688;2023-05-16T11:56:14;12.25;;;7.43;;
45043;SDS011;30784;48.490;9.688;2023-05-16T11:58:40;11.32;;;6.97;;
45043;SDS011;30784;48.490;9.688;2023-05-16T12:01:06;10.70;;;6.95;;
45043;SDS011;30784;48.490;9.688;2023-05-16T12:03:33;12.23;;;8.30;;
45043;SDS011;30784;48.490;9.688;2023-05-16T12:06:00;12.70;;;8.40;;
45043;SDS011;30784;48.490;9.688;2023-05-16T12:08:27;11.63;;;7.57;;
45043;SDS011;30784;48.490;9.688;2023-05-16T12:10:52;11.85;;;7.05;;
45043;SDS011;30784;48.490;9.688;2023-05-16T12:13:18;11.90;;;7.05;;
45043;SDS011;30784;48.490;9.688;2023-05-16T12:15:45;11.85;;;8.07;;
45043;SDS011;30784;48.490;9.688;2023-05-16T12:18:12;12.93;;;7.28;;
45043;SDS011;30784;48.490;9.688;2023-05-16T12:20:38;12.43;;;7.38;;
45043;SDS011;30784;48.490;9.688;2023-05-16T12:23:04;10.95;;;6.78;;
45043;SDS011;30784;48.490;9.688;2023-05-16T12:25:34;11.95;;;7.63;;
45043;SDS011;30784;48.490;9.688;2023-05-16T12:28:04;10.80;;;6.95;;
45043;SDS011;30784;48.490;9.688;2023-05-16T12:30:31;12.25;;;7.38;;
45043;SDS011;30784;48.490;9.688;2023-05-16T12:32:58;11.40;;;7.38;;
45043;SDS011;30784;48.490;9.688;2023-05-16T12:35:28;10.95;;;6.88;;
45043;SDS011;30784;48.490;9.688;2023-05-16T12:37:55;11.50;;;6.65;;
45043;SDS011;30784;48.490;9.688;2023-05-16T12:40:21;11.65;;;6.90;;
45043;SDS011;30784;48.490;9.688;2023-05-16T12:42:48;10.95;;;6.68;;
45043;SDS011;30784;48.490;9.688;2023-05-16T12:45:16;11.70;;;7.10;;
45043;SDS011;30784;48.490;9.688;2023-05-16T12:47:42;10.90;;;6.85;;
45043;SDS011;30784;48.490;9.688;2023-05-16T12:50:08;10.80;;;6.82;;
45043;SDS011;30784;48.490;9.688;2023-05-16T12:52:36;11.05;;;7.13;;
45043;SDS011;30784;48.490;9.688;2023-05-16T12:55:02;10.05;;;6.72;;
45043;SDS011;30784;48.490;9.688;2023-05-16T12:57:27;11.35;;;7.15;;
45043;SDS011;30784;48.490;9.688;2023-05-16T12:59:53;11.88;;;7.93;;
45043;SDS011;30784;48.490;9.688;2023-05-16T13:02:18;12.10;;;7.65;;
45043;SDS011;30784;48.490;9.688;2023-05-16T13:04:45;11.80;;;7.40;;
45043;SDS011;30784;48.490;9.688;2023-05-16T13:07:11;11.10;;;6.97;;
45043;SDS011;30784;48.490;9.688;2023-05-16T13:09:37;10.13;;;6.47;;
45043;SDS011;30784;48.490;9.688;2023-05-16T13:12:02;12.13;;;7.03;;
45043;SDS011;30784;48.490;9.688;2023-05-16T13:14:28;11.70;;;7.03;;
45043;SDS011;30784;48.490;9.688;2023-05-16T13:16:54;10.85;;;7.18;;
45043;SDS011;30784;48.490;9.688;2023-05-16T13:19:19;11.50;;;7.22;;
45043;SDS011;30784;48.490;9.688;2023-05-16T13:21:46;11.25;;;6.85;;
45043;SDS011;30784;48.490;9.688;2023-05-16T13:24:12;12.15;;;7.40;;
45043;SDS011;30784;48.490;9.688;2023-05-16T13:26:38;11.25;;;6.53;;
45043;SDS011;30784;48.490;9.688;2023-05-16T13:29:03;10.68;;;6.70;;
45043;SDS011;30784;48.490;9.688;2023-05-16T13:31:29;11.52;;;7.00;;
45043;SDS011;30784;48.490;9.688;2023-05-16T13:33:55;11.82;;;7.25;;
45043;SDS011;30784;48.490;9.688;2023-05-16T13:36:20;10.65;;;7.20;;
45043;SDS011;30784;48.490;9.688;2023-05-16T13:38:46;11.05;;;6.82;;
45043;SDS011;30784;48.490;9.688;2023-05-16T13:41:12;10.23;;;6.15;;
45043;SDS011;30784;48.490;9.688;2023-05-16T13:43:38;12.77;;;7.63;;
45043;SDS011;30784;48.490;9.688;2023-05-16T13:46:03;10.50;;;6.82;;
45043;SDS011;30784;48.490;9.688;2023-05-16T13:48:29;11.73;;;6.60;;
45043;SDS011;30784;48.490;9.688;2023-05-16T13:50:54;11.63;;;7.10;;
45043;SDS011;30784;48.490;9.688;2023-05-16T13:53:20;10.10;;;6.70;;
45043;SDS011;30784;48.490;9.688;2023-05-16T13:55:46;10.55;;;6.03;;
45043;SDS011;30784;48.490;9.688;2023-05-16T13:58:12;11.25;;;7.10;;
45043;SDS011;30784;48.490;9.688;2023-05-16T14:00:37;11.52;;;6.93;;
45043;SDS011;30784;48.490;9.688;2023-05-16T14:03:03;10.27;;;6.95;;
45043;SDS011;30784;48.490;9.688;2023-05-16T14:05:28;10.80;;;7.07;;
45043;SDS011;30784;48.490;9.688;2023-05-16T14:07:54;11.70;;;7.43;;
45043;SDS011;30784;48.490;9.688;2023-05-16T14:10:20;11.50;;;7.30;;
45043;SDS011;30784;48.490;9.688;2023-05-16T14:12:45;11.20;;;7.10;;
45043;SDS011;30784;48.490;9.688;2023-05-16T14:15:11;11.18;;;7.55;;
45043;SDS011;30784;48.490;9.688;2023-05-16T14:17:36;12.05;;;7.45;;
45043;SDS011;30784;48.490;9.688;2023-05-16T14:20:02;10.63;;;6.53;;
45043;SDS011;30784;48.490;9.688;2023-05-16T14:22:33;11.00;;;6.68;;
45043;SDS011;30784;48.490;9.688;2023-05-16T14:24:58;10.77;;;6.35;;
45043;SDS011;30784;48.490;9.688;2023-05-16T14:27:24;12.07;;;6.95;;
45043;SDS011;30784;48.490;9.688;2023-05-16T14:29:49;12.98;;;7.38;;
45043;SDS011;30784;48.490;9.688;2023-05-16T14:32:16;12.50;;;7.90;;
45043;SDS011;30784;48.490;9.688;2023-05-16T14:34:42;11.77;;;7.25;;
45043;SDS011;30784;48.490;9.688;2023-05-16T14:37:07;12.73;;;7.55;;
45043;SDS011;30784;48.490;9.688;2023-05-16T14:39:34;11.93;;;7.20;;
45043;SDS011;30784;48.490;9.688;2023-05-16T14:42:00;12.32;;;7.10;;
45043;SDS011;30784;48.490;9.688;2023-05-16T14:44:25;11.77;;;7.32;;
45043;SDS011;30784;48.490;9.688;2023-05-16T14:46:51;51.33;;;32.65;;
45043;SDS011;30784;48.490;9.688;2023-05-16T14:49:16;23.95;;;14.68;;
45043;SDS011;30784;48.490;9.688;2023-05-16T14:51:42;13.80;;;8.77;;
45043;SDS011;30784;48.490;9.688;2023-05-16T14:54:13;13.35;;;7.75;;
45043;SDS011;30784;48.490;9.688;2023-05-16T14:56:39;10.98;;;7.18;;